sensor_id;sensor_type;location;lat;lon;timestamp;pressure;altitude;pressure_sealevel;temperature;humidity
25510;BME280;13413;52.336;21.200;2022-07-10T00:01:47;100366.73;;;18.23;59.87
25510;BME280;13413;52.336;21.200;2022-07-10T00:05:08;100362.70;;;18.28;59.97
25510;BME280;13413;52.336;21.200;2022-07-10T00:08:29;100365.55;;;18.30;59.85
25510;BME280;13413;52.336;21.200;2022-07-10T00:11:48;100368.06;;;18.28;60.02
25510;BME280;13413;52.336;21.200;2022-07-10T00:15:09;100367.92;;;18.32;60.03
25510;BME280;13413;52.336;21.200;2022-07-10T00:18:29;100368.62;;;18.32;60.00
25510;BME280;13413;52.336;21.200;2022-07-10T00:21:48;100362.50;;;18.30;60.16
25510;BME280;13413;52.336;21.200;2022-07-10T00:25:10;100364.33;;;18.29;60.14
25510;BME280;13413;52.336;21.200;2022-07-10T00:28:29;100356.37;;;18.25;60.19
25510;BME280;13413;52.336;21.200;2022-07-10T00:31:48;100351.77;;;18.22;60.27
25510;BME280;13413;52.336;21.200;2022-07-10T00:35:09;100348.31;;;18.15;60.37
25510;BME280;13413;52.336;21.200;2022-07-10T00:38:29;100352.38;;;18.17;60.44
25510;BME280;13413;52.336;21.200;2022-07-10T00:41:49;100351.73;;;18.17;60.43
25510;BME280;13413;52.336;21.200;2022-07-10T00:45:12;100345.83;;;18.15;60.38
25510;BME280;13413;52.336;21.200;2022-07-10T00:48:32;100346.64;;;18.10;60.50
25510;BME280;13413;52.336;21.200;2022-07-10T00:51:52;100342.61;;;18.11;60.61
25510;BME280;13413;52.336;21.200;2022-07-10T00:55:15;100338.30;;;18.09;60.57
25510;BME280;13413;52.336;21.200;2022-07-10T00:58:35;100334.40;;;18.08;60.66
25510;BME280;13413;52.336;21.200;2022-07-10T01:01:55;100329.97;;;18.08;60.74
25510;BME280;13413;52.336;21.200;2022-07-10T01:05:14;100330.19;;;18.10;60.80
25510;BME280;13413;52.336;21.200;2022-07-10T01:08:34;100331.89;;;18.11;60.76
25510;BME280;13413;52.336;21.200;2022-07-10T01:11:54;100328.73;;;18.04;60.88
25510;BME280;13413;52.336;21.200;2022-07-10T01:15:15;100329.98;;;18.07;60.93
25510;BME280;13413;52.336;21.200;2022-07-10T01:18:35;100325.63;;;18.09;60.92
25510;BME280;13413;52.336;21.200;2022-07-10T01:21:54;100322.61;;;17.97;61.04
25510;BME280;13413;52.336;21.200;2022-07-10T01:25:13;100324.55;;;17.92;61.19
25510;BME280;13413;52.336;21.200;2022-07-10T01:28:32;100318.20;;;17.91;61.34
25510;BME280;13413;52.336;21.200;2022-07-10T01:31:53;100311.65;;;18.00;61.26
25510;BME280;13413;52.336;21.200;2022-07-10T01:35:13;100308.20;;;17.98;61.26
25510;BME280;13413;52.336;21.200;2022-07-10T01:38:32;100304.27;;;17.99;61.29
25510;BME280;13413;52.336;21.200;2022-07-10T01:41:52;100299.83;;;17.98;61.30
25510;BME280;13413;52.336;21.200;2022-07-10T01:45:12;100297.64;;;17.95;61.36
25510;BME280;13413;52.336;21.200;2022-07-10T01:48:32;100304.20;;;17.88;61.52
25510;BME280;13413;52.336;21.200;2022-07-10T01:51:51;100303.36;;;17.85;61.68
25510;BME280;13413;52.336;21.200;2022-07-10T01:55:11;100298.08;;;17.82;61.64
25510;BME280;13413;52.336;21.200;2022-07-10T01:58:34;100300.10;;;17.82;61.79
25510;BME280;13413;52.336;21.200;2022-07-10T02:01:54;100294.55;;;17.86;61.80
25510;BME280;13413;52.336;21.200;2022-07-10T02:05:14;100292.23;;;17.90;61.76
25510;BME280;13413;52.336;21.200;2022-07-10T02:08:36;100293.48;;;17.83;61.73
25510;BME280;13413;52.336;21.200;2022-07-10T02:11:55;100289.08;;;17.86;62.01
25510;BME280;13413;52.336;21.200;2022-07-10T02:15:22;100286.60;;;17.85;61.88
25510;BME280;13413;52.336;21.200;2022-07-10T02:18:41;100288.16;;;17.86;61.89
25510;BME280;13413;52.336;21.200;2022-07-10T02:22:00;100281.77;;;17.85;61.84
25510;BME280;13413;52.336;21.200;2022-07-10T02:25:20;100281.03;;;17.85;62.09
25510;BME280;13413;52.336;21.200;2022-07-10T02:28:40;100276.81;;;17.82;62.09
25510;BME280;13413;52.336;21.200;2022-07-10T02:31:59;100274.88;;;17.85;62.12
25510;BME280;13413;52.336;21.200;2022-07-10T02:35:19;100272.75;;;17.84;62.07
25510;BME280;13413;52.336;21.200;2022-07-10T02:38:39;100272.94;;;17.81;62.17
25510;BME280;13413;52.336;21.200;2022-07-10T02:41:58;100268.27;;;17.76;62.23
25510;BME280;13413;52.336;21.200;2022-07-10T02:45:18;100272.55;;;17.70;62.22
25510;BME280;13413;52.336;21.200;2022-07-10T02:51:57;100271.23;;;17.68;62.44
25510;BME280;13413;52.336;21.200;2022-07-10T02:55:16;100271.02;;;17.69;62.33
25510;BME280;13413;52.336;21.200;2022-07-10T02:58:37;100269.73;;;17.66;62.32
25510;BME280;13413;52.336;21.200;2022-07-10T03:01:57;100270.44;;;17.62;62.41
25510;BME280;13413;52.336;21.200;2022-07-10T03:05:16;100269.40;;;17.57;62.46
25510;BME280;13413;52.336;21.200;2022-07-10T03:08:36;100277.03;;;17.52;62.55
25510;BME280;13413;52.336;21.200;2022-07-10T03:11:56;100282.15;;;17.53;62.59
25510;BME280;13413;52.336;21.200;2022-07-10T03:15:16;100279.46;;;17.49;62.50
25510;BME280;13413;52.336;21.200;2022-07-10T03:18:35;100275.02;;;17.48;62.57
25510;BME280;13413;52.336;21.200;2022-07-10T03:21:54;100269.79;;;17.54;62.53
25510;BME280;13413;52.336;21.200;2022-07-10T03:25:14;100267.23;;;17.58;62.53
25510;BME280;13413;52.336;21.200;2022-07-10T03:28:34;100260.41;;;17.62;62.51
25510;BME280;13413;52.336;21.200;2022-07-10T03:31:53;100261.34;;;17.67;62.50
25510;BME280;13413;52.336;21.200;2022-07-10T03:35:13;100266.84;;;17.73;62.55
25510;BME280;13413;52.336;21.200;2022-07-10T03:38:33;100269.45;;;17.75;62.41
25510;BME280;13413;52.336;21.200;2022-07-10T03:41:53;100269.71;;;17.76;62.41
25510;BME280;13413;52.336;21.200;2022-07-10T03:45:12;100276.45;;;17.74;62.31
25510;BME280;13413;52.336;21.200;2022-07-10T03:48:32;100279.30;;;17.66;62.37
25510;BME280;13413;52.336;21.200;2022-07-10T03:51:52;100275.25;;;17.71;62.57
25510;BME280;13413;52.336;21.200;2022-07-10T03:55:11;100272.99;;;17.80;62.46
25510;BME280;13413;52.336;21.200;2022-07-10T03:58:32;100271.80;;;17.84;62.44
25510;BME280;13413;52.336;21.200;2022-07-10T04:01:52;100270.41;;;17.92;62.47
25510;BME280;13413;52.336;21.200;2022-07-10T04:05:11;100268.67;;;17.99;62.54
25510;BME280;13413;52.336;21.200;2022-07-10T04:08:31;100262.63;;;18.06;62.36
25510;BME280;13413;52.336;21.200;2022-07-10T04:15:12;100263.95;;;18.03;61.62
25510;BME280;13413;52.336;21.200;2022-07-10T04:18:31;100269.23;;;18.00;61.73
25510;BME280;13413;52.336;21.200;2022-07-10T04:21:51;100275.77;;;17.99;61.70
25510;BME280;13413;52.336;21.200;2022-07-10T04:25:11;100275.70;;;18.05;61.52
25510;BME280;13413;52.336;21.200;2022-07-10T04:28:31;100279.30;;;17.97;61.49
25510;BME280;13413;52.336;21.200;2022-07-10T04:31:51;100279.66;;;17.95;61.60
25510;BME280;13413;52.336;21.200;2022-07-10T04:35:10;100278.70;;;17.97;61.63
25510;BME280;13413;52.336;21.200;2022-07-10T04:38:29;100277.58;;;18.03;61.55
25510;BME280;13413;52.336;21.200;2022-07-10T04:41:49;100275.16;;;18.09;61.51
25510;BME280;13413;52.336;21.200;2022-07-10T04:45:10;100272.04;;;18.28;61.55
25510;BME280;13413;52.336;21.200;2022-07-10T04:48:30;100262.77;;;18.48;61.27
25510;BME280;13413;52.336;21.200;2022-07-10T04:51:50;100260.59;;;18.59;60.96
25510;BME280;13413;52.336;21.200;2022-07-10T04:55:11;100262.44;;;18.68;60.82
25510;BME280;13413;52.336;21.200;2022-07-10T04:58:31;100261.12;;;18.65;60.78
25510;BME280;13413;52.336;21.200;2022-07-10T05:01:51;100259.88;;;18.86;60.53
25510;BME280;13413;52.336;21.200;2022-07-10T05:05:10;100256.08;;;18.98;60.15
25510;BME280;13413;52.336;21.200;2022-07-10T05:08:29;100254.92;;;19.06;60.00
25510;BME280;13413;52.336;21.200;2022-07-10T05:11:48;100252.08;;;19.28;59.64
25510;BME280;13413;52.336;21.200;2022-07-10T05:15:10;100256.55;;;19.42;58.92
25510;BME280;13413;52.336;21.200;2022-07-10T05:18:29;100256.02;;;19.44;58.39
25510;BME280;13413;52.336;21.200;2022-07-10T05:21:49;100255.18;;;19.47;58.49
25510;BME280;13413;52.336;21.200;2022-07-10T05:25:09;100256.89;;;19.59;58.32
25510;BME280;13413;52.336;21.200;2022-07-10T05:28:29;100257.16;;;19.65;57.91
25510;BME280;13413;52.336;21.200;2022-07-10T05:31:48;100253.19;;;19.67;57.46
25510;BME280;13413;52.336;21.200;2022-07-10T05:35:10;100244.88;;;19.73;57.09
25510;BME280;13413;52.336;21.200;2022-07-10T05:38:29;100241.46;;;19.85;56.90
25510;BME280;13413;52.336;21.200;2022-07-10T05:41:48;100242.48;;;19.92;56.77
25510;BME280;13413;52.336;21.200;2022-07-10T05:45:09;100242.56;;;20.06;56.51
25510;BME280;13413;52.336;21.200;2022-07-10T05:48:30;100239.55;;;20.09;55.80
25510;BME280;13413;52.336;21.200;2022-07-10T05:51:48;100239.69;;;20.10;55.83
25510;BME280;13413;52.336;21.200;2022-07-10T05:55:08;100234.80;;;20.20;56.33
25510;BME280;13413;52.336;21.200;2022-07-10T05:58:27;100229.32;;;20.21;55.70
25510;BME280;13413;52.336;21.200;2022-07-10T06:01:47;100234.02;;;20.09;54.81
25510;BME280;13413;52.336;21.200;2022-07-10T06:05:09;100235.72;;;20.12;55.39
25510;BME280;13413;52.336;21.200;2022-07-10T06:08:28;100233.84;;;20.28;55.13
25510;BME280;13413;52.336;21.200;2022-07-10T06:11:48;100235.88;;;20.36;54.42
25510;BME280;13413;52.336;21.200;2022-07-10T06:15:09;100239.20;;;20.29;54.50
25510;BME280;13413;52.336;21.200;2022-07-10T06:18:29;100231.34;;;20.32;54.47
25510;BME280;13413;52.336;21.200;2022-07-10T06:21:48;100230.27;;;20.36;54.17
25510;BME280;13413;52.336;21.200;2022-07-10T06:25:10;100233.44;;;20.39;54.11
25510;BME280;13413;52.336;21.200;2022-07-10T06:28:28;100230.35;;;20.44;53.53
25510;BME280;13413;52.336;21.200;2022-07-10T06:31:47;100232.89;;;20.59;54.12
25510;BME280;13413;52.336;21.200;2022-07-10T06:35:08;100224.73;;;20.85;53.72
25510;BME280;13413;52.336;21.200;2022-07-10T06:38:27;100218.46;;;20.94;52.84
25510;BME280;13413;52.336;21.200;2022-07-10T06:41:47;100221.81;;;20.88;52.54
25510;BME280;13413;52.336;21.200;2022-07-10T06:45:08;100219.92;;;20.98;52.51
25510;BME280;13413;52.336;21.200;2022-07-10T06:48:28;100219.33;;;21.12;52.48
25510;BME280;13413;52.336;21.200;2022-07-10T06:51:47;100221.00;;;21.21;52.20
25510;BME280;13413;52.336;21.200;2022-07-10T06:55:08;100221.77;;;21.42;52.44
25510;BME280;13413;52.336;21.200;2022-07-10T06:58:28;100220.61;;;21.52;52.03
25510;BME280;13413;52.336;21.200;2022-07-10T07:01:46;100222.20;;;21.42;51.96
25510;BME280;13413;52.336;21.200;2022-07-10T07:05:08;100225.08;;;21.38;52.24
25510;BME280;13413;52.336;21.200;2022-07-10T07:08:30;100223.55;;;21.30;51.76
25510;BME280;13413;52.336;21.200;2022-07-10T07:11:49;100223.98;;;21.08;51.80
25510;BME280;13413;52.336;21.200;2022-07-10T07:15:10;100226.08;;;21.08;51.51
25510;BME280;13413;52.336;21.200;2022-07-10T07:18:29;100222.78;;;21.02;51.79
25510;BME280;13413;52.336;21.200;2022-07-10T07:21:48;100223.64;;;21.08;51.70
25510;BME280;13413;52.336;21.200;2022-07-10T07:25:09;100221.56;;;21.12;51.85
25510;BME280;13413;52.336;21.200;2022-07-10T07:28:31;100217.41;;;21.15;51.66
25510;BME280;13413;52.336;21.200;2022-07-10T07:31:50;100221.26;;;21.23;51.85
25510;BME280;13413;52.336;21.200;2022-07-10T07:35:11;100215.73;;;21.18;51.45
25510;BME280;13413;52.336;21.200;2022-07-10T07:38:31;100215.08;;;21.14;51.94
25510;BME280;13413;52.336;21.200;2022-07-10T07:41:50;100220.44;;;21.16;51.31
25510;BME280;13413;52.336;21.200;2022-07-10T07:45:11;100217.10;;;21.00;50.83
25510;BME280;13413;52.336;21.200;2022-07-10T07:48:30;100214.56;;;20.97;51.62
25510;BME280;13413;52.336;21.200;2022-07-10T07:51:50;100213.98;;;21.13;51.30
25510;BME280;13413;52.336;21.200;2022-07-10T07:55:10;100214.66;;;21.03;50.76
25510;BME280;13413;52.336;21.200;2022-07-10T08:01:49;100212.73;;;21.04;50.52
25510;BME280;13413;52.336;21.200;2022-07-10T08:05:10;100217.39;;;21.08;51.22
25510;BME280;13413;52.336;21.200;2022-07-10T08:08:29;100221.91;;;21.25;50.64
25510;BME280;13413;52.336;21.200;2022-07-10T08:11:48;100225.17;;;21.26;50.21
25510;BME280;13413;52.336;21.200;2022-07-10T08:15:10;100220.87;;;21.31;49.65
25510;BME280;13413;52.336;21.200;2022-07-10T08:18:30;100219.65;;;21.41;49.13
25510;BME280;13413;52.336;21.200;2022-07-10T08:21:48;100217.09;;;21.59;48.96
25510;BME280;13413;52.336;21.200;2022-07-10T08:25:08;100217.69;;;21.86;48.24
25510;BME280;13413;52.336;21.200;2022-07-10T08:28:28;100217.77;;;21.89;47.67
25510;BME280;13413;52.336;21.200;2022-07-10T08:31:47;100219.84;;;21.91;47.80
25510;BME280;13413;52.336;21.200;2022-07-10T08:35:09;100220.11;;;22.02;47.96
25510;BME280;13413;52.336;21.200;2022-07-10T08:38:30;100220.90;;;22.10;47.94
25510;BME280;13413;52.336;21.200;2022-07-10T08:41:49;100216.05;;;21.96;47.82
25510;BME280;13413;52.336;21.200;2022-07-10T08:45:09;100216.67;;;21.75;47.26
25510;BME280;13413;52.336;21.200;2022-07-10T08:48:32;100215.42;;;21.60;47.58
25510;BME280;13413;52.336;21.200;2022-07-10T08:51:57;100221.99;;;21.43;47.50
25510;BME280;13413;52.336;21.200;2022-07-10T08:55:18;100220.08;;;21.20;47.80
25510;BME280;13413;52.336;21.200;2022-07-10T08:58:39;100220.33;;;21.06;48.08
25510;BME280;13413;52.336;21.200;2022-07-10T09:01:58;100221.63;;;20.97;48.46
25510;BME280;13413;52.336;21.200;2022-07-10T09:05:18;100218.96;;;20.99;48.91
25510;BME280;13413;52.336;21.200;2022-07-10T09:08:38;100219.08;;;21.18;49.16
25510;BME280;13413;52.336;21.200;2022-07-10T09:12:17;100215.09;;;21.39;48.37
25510;BME280;13413;52.336;21.200;2022-07-10T09:15:37;100212.02;;;21.27;48.34
25510;BME280;13413;52.336;21.200;2022-07-10T09:18:56;100212.66;;;21.46;48.76
25510;BME280;13413;52.336;21.200;2022-07-10T09:22:17;100209.20;;;21.91;48.14
25510;BME280;13413;52.336;21.200;2022-07-10T09:25:37;100206.71;;;22.36;47.38
25510;BME280;13413;52.336;21.200;2022-07-10T09:29:06;100202.05;;;22.34;46.97
25510;BME280;13413;52.336;21.200;2022-07-10T09:32:26;100207.49;;;22.05;46.78
25510;BME280;13413;52.336;21.200;2022-07-10T09:35:57;100198.48;;;21.92;46.89
25510;BME280;13413;52.336;21.200;2022-07-10T09:39:17;100197.59;;;21.93;47.16
25510;BME280;13413;52.336;21.200;2022-07-10T09:42:38;100196.80;;;21.83;47.23
25510;BME280;13413;52.336;21.200;2022-07-10T09:45:57;100192.88;;;21.75;46.83
25510;BME280;13413;52.336;21.200;2022-07-10T09:49:17;100189.85;;;21.53;46.86
25510;BME280;13413;52.336;21.200;2022-07-10T09:52:36;100183.99;;;21.63;47.11
25510;BME280;13413;52.336;21.200;2022-07-10T09:55:58;100179.85;;;22.02;46.16
25510;BME280;13413;52.336;21.200;2022-07-10T09:59:20;100175.60;;;22.15;46.02
25510;BME280;13413;52.336;21.200;2022-07-10T10:02:40;100174.08;;;22.36;46.50
25510;BME280;13413;52.336;21.200;2022-07-10T10:06:04;100175.09;;;22.47;46.16
25510;BME280;13413;52.336;21.200;2022-07-10T10:09:28;100176.14;;;22.43;45.89
25510;BME280;13413;52.336;21.200;2022-07-10T10:12:52;100186.08;;;22.23;45.15
25510;BME280;13413;52.336;21.200;2022-07-10T10:16:14;100194.06;;;21.84;45.14
25510;BME280;13413;52.336;21.200;2022-07-10T10:19:35;100189.21;;;21.58;45.37
25510;BME280;13413;52.336;21.200;2022-07-10T10:22:58;100195.52;;;21.37;45.56
25510;BME280;13413;52.336;21.200;2022-07-10T10:26:18;100199.58;;;21.20;45.20
25510;BME280;13413;52.336;21.200;2022-07-10T10:29:39;100195.05;;;21.07;45.33
25510;BME280;13413;52.336;21.200;2022-07-10T10:32:58;100195.00;;;21.17;45.23
25510;BME280;13413;52.336;21.200;2022-07-10T10:36:44;100190.33;;;21.43;45.23
25510;BME280;13413;52.336;21.200;2022-07-10T10:40:05;100178.96;;;22.15;45.50
25510;BME280;13413;52.336;21.200;2022-07-10T10:43:25;100168.25;;;22.91;44.87
25510;BME280;13413;52.336;21.200;2022-07-10T10:46:59;100179.11;;;23.55;44.01
25510;BME280;13413;52.336;21.200;2022-07-10T10:50:40;100178.06;;;24.03;43.74
25510;BME280;13413;52.336;21.200;2022-07-10T10:54:07;100180.36;;;24.29;42.86
25510;BME280;13413;52.336;21.200;2022-07-10T10:57:35;100178.00;;;24.18;42.54
25510;BME280;13413;52.336;21.200;2022-07-10T11:00:56;100179.65;;;23.83;42.42
25510;BME280;13413;52.336;21.200;2022-07-10T11:04:21;100172.46;;;23.55;43.36
25510;BME280;13413;52.336;21.200;2022-07-10T11:07:56;100172.77;;;23.85;43.45
25510;BME280;13413;52.336;21.200;2022-07-10T11:14:52;100181.39;;;23.38;42.45
25510;BME280;13413;52.336;21.200;2022-07-10T11:18:14;100175.36;;;23.31;41.64
25510;BME280;13413;52.336;21.200;2022-07-10T11:21:46;100175.25;;;23.49;41.79
25510;BME280;13413;52.336;21.200;2022-07-10T11:25:14;100172.63;;;23.71;41.34
25510;BME280;13413;52.336;21.200;2022-07-10T11:28:50;100173.52;;;23.44;41.42
25510;BME280;13413;52.336;21.200;2022-07-10T11:32:11;100175.38;;;23.36;41.37
25510;BME280;13413;52.336;21.200;2022-07-10T11:35:34;100169.85;;;23.23;41.62
25510;BME280;13413;52.336;21.200;2022-07-10T11:38:59;100170.47;;;23.08;41.92
25510;BME280;13413;52.336;21.200;2022-07-10T11:42:20;100170.42;;;23.33;42.82
25510;BME280;13413;52.336;21.200;2022-07-10T11:45:39;100168.95;;;23.47;41.97
25510;BME280;13413;52.336;21.200;2022-07-10T11:48:58;100172.58;;;23.45;42.45
25510;BME280;13413;52.336;21.200;2022-07-10T11:52:18;100173.16;;;23.72;42.61
25510;BME280;13413;52.336;21.200;2022-07-10T11:55:38;100173.25;;;23.86;41.29
25510;BME280;13413;52.336;21.200;2022-07-10T11:58:58;100174.91;;;23.76;41.53
25510;BME280;13413;52.336;21.200;2022-07-10T12:02:24;100174.15;;;23.59;41.68
25510;BME280;13413;52.336;21.200;2022-07-10T12:05:45;100171.00;;;23.29;41.79
25510;BME280;13413;52.336;21.200;2022-07-10T12:09:06;100170.63;;;23.20;42.00
25510;BME280;13413;52.336;21.200;2022-07-10T12:12:27;100168.95;;;23.17;42.25
25510;BME280;13413;52.336;21.200;2022-07-10T12:15:47;100163.24;;;23.26;41.99
25510;BME280;13413;52.336;21.200;2022-07-10T12:19:10;100155.07;;;23.36;42.26
25510;BME280;13413;52.336;21.200;2022-07-10T12:22:30;100163.09;;;23.27;42.38
25510;BME280;13413;52.336;21.200;2022-07-10T12:25:50;100165.74;;;23.26;42.68
25510;BME280;13413;52.336;21.200;2022-07-10T12:29:20;100161.89;;;23.43;42.84
25510;BME280;13413;52.336;21.200;2022-07-10T12:32:40;100172.52;;;23.19;42.79
25510;BME280;13413;52.336;21.200;2022-07-10T12:36:01;100171.50;;;22.78;44.19
25510;BME280;13413;52.336;21.200;2022-07-10T12:39:24;100176.02;;;22.41;45.59
25510;BME280;13413;52.336;21.200;2022-07-10T12:42:44;100186.66;;;22.07;46.10
25510;BME280;13413;52.336;21.200;2022-07-10T12:46:17;100187.38;;;21.85;46.03
25510;BME280;13413;52.336;21.200;2022-07-10T12:49:53;100187.17;;;21.63;46.65
25510;BME280;13413;52.336;21.200;2022-07-10T12:53:14;100189.11;;;21.46;46.78
25510;BME280;13413;52.336;21.200;2022-07-10T12:56:38;100187.29;;;21.50;47.01
25510;BME280;13413;52.336;21.200;2022-07-10T13:00:06;100186.11;;;21.52;46.28
25510;BME280;13413;52.336;21.200;2022-07-10T13:03:29;100185.72;;;21.47;46.16
25510;BME280;13413;52.336;21.200;2022-07-10T13:06:49;100189.30;;;21.39;46.32
25510;BME280;13413;52.336;21.200;2022-07-10T13:10:10;100190.92;;;21.32;46.14
25510;BME280;13413;52.336;21.200;2022-07-10T13:13:30;100189.81;;;21.46;46.31
25510;BME280;13413;52.336;21.200;2022-07-10T13:16:50;100191.95;;;21.57;46.00
25510;BME280;13413;52.336;21.200;2022-07-10T13:20:11;100194.95;;;21.50;46.22
25510;BME280;13413;52.336;21.200;2022-07-10T13:23:30;100195.36;;;21.62;46.36
25510;BME280;13413;52.336;21.200;2022-07-10T13:26:50;100197.21;;;21.86;46.11
25510;BME280;13413;52.336;21.200;2022-07-10T13:30:10;100191.92;;;21.99;45.96
25510;BME280;13413;52.336;21.200;2022-07-10T13:33:30;100189.00;;;22.26;44.66
25510;BME280;13413;52.336;21.200;2022-07-10T13:36:50;100189.38;;;22.48;44.83
25510;BME280;13413;52.336;21.200;2022-07-10T13:40:11;100192.09;;;22.57;44.87
25510;BME280;13413;52.336;21.200;2022-07-10T13:43:32;100190.44;;;22.54;44.69
25510;BME280;13413;52.336;21.200;2022-07-10T13:46:52;100197.82;;;22.43;45.20
25510;BME280;13413;52.336;21.200;2022-07-10T13:50:12;100206.77;;;22.13;45.51
25510;BME280;13413;52.336;21.200;2022-07-10T13:53:34;100209.44;;;21.91;45.53
25510;BME280;13413;52.336;21.200;2022-07-10T13:56:54;100197.45;;;21.88;45.78
25510;BME280;13413;52.336;21.200;2022-07-10T14:00:15;100193.80;;;21.92;46.21
25510;BME280;13413;52.336;21.200;2022-07-10T14:03:38;100192.79;;;21.98;45.86
25510;BME280;13413;52.336;21.200;2022-07-10T14:06:58;100187.77;;;22.09;45.68
25510;BME280;13413;52.336;21.200;2022-07-10T14:10:17;100190.20;;;22.16;45.59
25510;BME280;13413;52.336;21.200;2022-07-10T14:13:36;100188.46;;;22.19;45.83
25510;BME280;13413;52.336;21.200;2022-07-10T14:16:56;100196.37;;;22.17;46.33
25510;BME280;13413;52.336;21.200;2022-07-10T14:20:15;100192.95;;;22.26;46.34
25510;BME280;13413;52.336;21.200;2022-07-10T14:23:35;100193.92;;;22.26;46.54
25510;BME280;13413;52.336;21.200;2022-07-10T14:26:55;100196.23;;;22.35;46.60
25510;BME280;13413;52.336;21.200;2022-07-10T14:30:14;100210.64;;;22.34;45.49
25510;BME280;13413;52.336;21.200;2022-07-10T14:33:35;100217.39;;;22.22;45.52
25510;BME280;13413;52.336;21.200;2022-07-10T14:36:55;100223.59;;;22.04;45.48
25510;BME280;13413;52.336;21.200;2022-07-10T14:40:15;100235.24;;;21.99;46.28
25510;BME280;13413;52.336;21.200;2022-07-10T14:43:34;100240.32;;;21.93;46.70
25510;BME280;13413;52.336;21.200;2022-07-10T14:46:53;100237.56;;;21.83;47.15
25510;BME280;13413;52.336;21.200;2022-07-10T14:50:13;100235.37;;;21.66;47.32
25510;BME280;13413;52.336;21.200;2022-07-10T14:53:32;100234.02;;;21.56;47.96
25510;BME280;13413;52.336;21.200;2022-07-10T14:56:51;100239.98;;;21.53;48.23
25510;BME280;13413;52.336;21.200;2022-07-10T15:00:13;100242.48;;;21.57;48.67
25510;BME280;13413;52.336;21.200;2022-07-10T15:03:32;100238.06;;;21.58;48.49
25510;BME280;13413;52.336;21.200;2022-07-10T15:06:51;100238.14;;;21.51;48.71
25510;BME280;13413;52.336;21.200;2022-07-10T15:10:11;100240.83;;;21.50;48.89
25510;BME280;13413;52.336;21.200;2022-07-10T15:13:31;100237.95;;;21.52;48.98
25510;BME280;13413;52.336;21.200;2022-07-10T15:16:51;100238.80;;;21.51;48.98
25510;BME280;13413;52.336;21.200;2022-07-10T15:20:13;100241.88;;;21.55;48.84
25510;BME280;13413;52.336;21.200;2022-07-10T15:23:32;100247.23;;;21.52;48.88
25510;BME280;13413;52.336;21.200;2022-07-10T15:26:51;100253.90;;;21.58;49.09
25510;BME280;13413;52.336;21.200;2022-07-10T15:30:11;100256.15;;;21.54;48.94
25510;BME280;13413;52.336;21.200;2022-07-10T15:33:32;100263.96;;;21.34;48.79
25510;BME280;13413;52.336;21.200;2022-07-10T15:36:51;100267.30;;;21.21;48.79
25510;BME280;13413;52.336;21.200;2022-07-10T15:40:10;100268.64;;;21.11;49.26
25510;BME280;13413;52.336;21.200;2022-07-10T15:43:32;100270.89;;;20.98;50.17
25510;BME280;13413;52.336;21.200;2022-07-10T15:50:12;100269.67;;;20.67;50.56
25510;BME280;13413;52.336;21.200;2022-07-10T15:53:32;100269.05;;;20.74;51.20
25510;BME280;13413;52.336;21.200;2022-07-10T15:56:51;100266.48;;;20.78;50.73
25510;BME280;13413;52.336;21.200;2022-07-10T16:00:12;100265.95;;;20.70;50.91
25510;BME280;13413;52.336;21.200;2022-07-10T16:03:31;100262.13;;;20.70;51.08
25510;BME280;13413;52.336;21.200;2022-07-10T16:06:50;100255.58;;;20.77;51.25
25510;BME280;13413;52.336;21.200;2022-07-10T16:10:10;100253.95;;;20.77;50.64
25510;BME280;13413;52.336;21.200;2022-07-10T16:13:29;100247.22;;;20.62;50.27
25510;BME280;13413;52.336;21.200;2022-07-10T16:16:49;100249.05;;;20.53;50.89
25510;BME280;13413;52.336;21.200;2022-07-10T16:20:10;100244.15;;;20.56;50.80
25510;BME280;13413;52.336;21.200;2022-07-10T16:23:30;100245.61;;;20.61;50.77
25510;BME280;13413;52.336;21.200;2022-07-10T16:26:49;100250.64;;;20.54;50.50
25510;BME280;13413;52.336;21.200;2022-07-10T16:30:10;100249.27;;;20.52;50.53
25510;BME280;13413;52.336;21.200;2022-07-10T16:33:30;100245.98;;;20.40;50.55
25510;BME280;13413;52.336;21.200;2022-07-10T16:36:50;100243.81;;;20.26;50.62
25510;BME280;13413;52.336;21.200;2022-07-10T16:40:10;100241.91;;;20.22;50.71
25510;BME280;13413;52.336;21.200;2022-07-10T16:43:29;100245.55;;;20.22;51.04
25510;BME280;13413;52.336;21.200;2022-07-10T16:46:48;100245.72;;;20.25;50.98
25510;BME280;13413;52.336;21.200;2022-07-10T16:50:09;100243.19;;;20.19;51.00
25510;BME280;13413;52.336;21.200;2022-07-10T16:53:29;100245.91;;;20.07;50.92
25510;BME280;13413;52.336;21.200;2022-07-10T16:56:49;100247.80;;;19.87;50.74
25510;BME280;13413;52.336;21.200;2022-07-10T17:00:10;100249.88;;;19.81;51.03
25510;BME280;13413;52.336;21.200;2022-07-10T17:03:29;100258.86;;;19.79;50.75
25510;BME280;13413;52.336;21.200;2022-07-10T17:06:48;100266.11;;;19.77;50.95
25510;BME280;13413;52.336;21.200;2022-07-10T17:10:10;100272.82;;;19.84;50.94
25510;BME280;13413;52.336;21.200;2022-07-10T17:13:29;100277.10;;;19.93;50.97
25510;BME280;13413;52.336;21.200;2022-07-10T17:16:48;100276.81;;;20.01;50.81
25510;BME280;13413;52.336;21.200;2022-07-10T17:23:42;100277.58;;;19.96;50.56
25510;BME280;13413;52.336;21.200;2022-07-10T17:27:02;100278.21;;;19.93;50.40
25510;BME280;13413;52.336;21.200;2022-07-10T17:30:21;100287.70;;;19.85;50.32
25510;BME280;13413;52.336;21.200;2022-07-10T17:33:40;100291.98;;;19.80;50.38
25510;BME280;13413;52.336;21.200;2022-07-10T17:36:59;100290.66;;;19.73;50.46